This is the latest recevied weather packets stored in our database for station/object W8BS. If no packets are shown the sender has not sent any weather packets the latest 10 day(s).
| Time | Temp. | Humidity | Pressure | Rain* | Wind** | Luminosity | Snow |
|---|---|---|---|---|---|---|---|
| 1777936164 | 18.89° C | 57% | 1010.1 hPa | 0 mm | - | 83 W/m² | - |
| 1777935861 | 18.33° C | 57% | 1010.3 hPa | 0 mm | - | 77 W/m² | - |
| 1777935560 | 18.89° C | 56% | 1010 hPa | 0 mm | - | 65 W/m² | - |
| 1777935256 | 18.89° C | 56% | 1010.4 hPa | 0 mm | - | 52 W/m² | - |
| 1777934954 | 18.89° C | 55% | 1010.2 hPa | 0 mm | - | 49 W/m² | - |
| 1777934650 | 18.89° C | 55% | 1010.2 hPa | 0 mm | - | 67 W/m² | - |
| 1777934347 | 18.89° C | 56% | 1010 hPa | 0 mm | - | 113 W/m² | - |
| 1777934042 | 18.89° C | 55% | 1010 hPa | 0 mm | - | 106 W/m² | - |
| 1777933739 | 18.89° C | 55% | 1010 hPa | 0 mm | - | 42 W/m² | - |
| 1777933436 | 18.89° C | 55% | 1010.3 hPa | 0 mm | - | 49 W/m² | - |
| 1777933134 | 19.44° C | 54% | 1010.3 hPa | 0 mm | - | 58 W/m² | - |
| 1777932831 | 19.44° C | 54% | 1010.2 hPa | 0 mm | - | 63 W/m² | - |
| 1777932528 | 20° C | 54% | 1010.4 hPa | 0 mm | - | 83 W/m² | - |
| 1777932224 | 20° C | 54% | 1010.2 hPa | 0 mm | - | 132 W/m² | - |
| 1777931922 | 20° C | 55% | 1010.2 hPa | 0 mm | - | 183 W/m² | - |
| 1777931618 | 19.44° C | 55% | 1010 hPa | 0 mm | - | 165 W/m² | - |
| 1777931314 | 18.89° C | 59% | 1010.3 hPa | 0 mm | - | 231 W/m² | - |
| 1777931011 | 18.89° C | 57% | 1010.3 hPa | 0 mm | - | 115 W/m² | - |
| 1777930708 | 18.89° C | 56% | 1010.3 hPa | 0 mm | - | 118 W/m² | - |
| 1777930404 | 19.44° C | 55% | 1010.3 hPa | 0 mm | - | 117 W/m² | - |
| 1777930101 | 18.89° C | 57% | 1010.3 hPa | 0 mm | - | 207 W/m² | - |
| 1777929797 | 18.89° C | 56% | 1010.2 hPa | 0 mm | - | 189 W/m² | - |
| 1777929495 | 18.89° C | 56% | 1010.1 hPa | 0 mm | - | 239 W/m² | - |
| 1777929191 | 18.89° C | 56% | 1010.3 hPa | 0 mm | - | 129 W/m² | - |
| 1777928889 | 18.89° C | 56% | 1010.2 hPa | 0 mm | - | 134 W/m² | - |
* Rain latest hour (hover to see other rain measurements)
** Current wind speed in m/s (hover to see current wind gust speed)